Wednesday, June 20, 2018, 10:23 PM GMT
Back to Local

CYPQ, Peterborough Airport

Location: , , Canada Lat: 44.233
Local Time: 10:23 PM GMT (22:23 GMT) Lon: -78.367
Time Zone: GMT Elev: 626 ft

Show me the last for .
Show Decoded

2018-06-20 22:00 METAR CYPQ 202200Z AUTO VRB03KT 9SM CLR 26/11 A2979 RMK SLP090 DENSITY ALT
                 2100FT =
2018-06-20 21:00 METAR CYPQ 202100Z AUTO 35006KT 300V360 9SM CLR 25/11 A2980 RMK SLP093 DENSITY
                 ALT 2000FT =
2018-06-20 20:00 METAR CYPQ 202000Z AUTO VRB05KT 9SM CLR 26/10 A2982 RMK SLP099 DENSITY ALT
                 2000FT =
2018-06-20 19:00 METAR CYPQ 201900Z AUTO 27006KT 210V320 9SM CLR 25/11 A2983 RMK SLP104 DENSITY
                 ALT 2000FT =
2018-06-20 18:00 METAR CYPQ 201800Z AUTO 34006KT 240V040 9SM CLR 24/12 A2984 RMK SLP107 DENSITY
                 ALT 1900FT =
2018-06-20 17:00 METAR CYPQ 201700Z AUTO VRB05KT 9SM CLR 24/13 A2986 RMK SLP112 DENSITY ALT
                 1800FT =
2018-06-20 16:00 METAR CYPQ 201600Z AUTO 26006KT 150V290 9SM CLR 23/12 A2987 RMK SLP118 DENSITY
                 ALT 1700FT =
2018-06-20 15:00 METAR CYPQ 201500Z AUTO VRB04KT 9SM CLR 21/15 A2988 RMK SLP120 DENSITY ALT
                 1500FT =
2018-06-20 14:00 METAR CYPQ 201400Z AUTO 23003KT 180V320 9SM CLR 20/15 A2989 RMK SLP125 DENSITY
                 ALT 1300FT =
2018-06-20 13:00 METAR CYPQ 201300Z AUTO VRB02KT 9SM BKN190 18/14 A2991 RMK SLP129 DENSITY ALT
                 1100FT =
2018-06-20 12:00 METAR CYPQ 201200Z AUTO 26003KT 230V300 9SM FEW190 SCT220 15/14 A2991 RMK SLP131
                 DENSITY ALT 800FT =
2018-06-20 11:00 METAR CYPQ 201100Z AUTO 00000KT 9SM FEW210 13/12 A2992 RMK SLP134 =
2018-06-20 10:00 METAR CYPQ 201000Z AUTO 00000KT 9SM SCT200 09/09 A2992 RMK SLP135 =
2018-06-20 09:00 METAR CYPQ 200900Z AUTO 00000KT 9SM CLR 09/09 A2993 RMK SLP137 =
2018-06-20 08:00 METAR CYPQ 200800Z AUTO 19002KT 9SM CLR 10/10 A2991 RMK SLP130 =
2018-06-20 07:00 METAR CYPQ 200700Z AUTO VRB02KT 9SM CLR 11/11 A2992 RMK SLP133 =
2018-06-20 06:00 METAR CYPQ 200600Z AUTO 00000KT 9SM CLR 10/10 A2993 RMK SLP138 =
2018-06-20 05:35 METAR CYPQ 200535Z AUTO 00000KT 6SM BR CLR 11/11 A2994 RMK SLP141 =
2018-06-20 05:26 METAR CYPQ 200526Z AUTO 00000KT 3SM BR CLR 12/12 A2994 RMK SLP142 =
2018-06-20 05:00 METAR CYPQ 200500Z AUTO 19002KT 9SM CLR 12/12 A2994 RMK SLP142 =
2018-06-20 04:00 METAR CYPQ 200400Z AUTO 16002KT 9SM CLR 13/12 A2995 RMK SLP143 =
2018-06-20 03:00 METAR CYPQ 200300Z AUTO 00000KT 9SM CLR 14/13 A2994 RMK SLP142 =
2018-06-20 02:00 METAR CYPQ 200200Z AUTO 21002KT 9SM CLR 16/14 A2995 RMK SLP145 DENSITY ALT 800FT
                 =
2018-06-20 01:00 METAR CYPQ 200100Z AUTO 25003KT 9SM FEW240 17/13 A2994 RMK SLP140 DENSITY ALT
                 900FT =
2018-06-20 00:00 METAR CYPQ 200000Z AUTO 26003KT 9SM FEW240 20/14 A2994 RMK SLP141 DENSITY ALT
                 1300FT =
2018-06-19 23:00 METAR CYPQ 192300Z AUTO 29006KT 9SM CLR 23/11 A2994 RMK SLP141 DENSITY ALT
                 1600FT =

Support USWX by starting your Amazon purchase here.